Time;durP1;ratioP1;P1;durP2;ratioP2;P2;SDS_P1;SDS_P2;PMS_P1;PMS_P2;Temp;Humidity;BMP_temperature;BMP_pressure;BME280_temperature;BME280_humidity;BME280_pressure;Samples;Min_cycle;Max_cycle;Signal;HPM_P1;HPM_P2
2020/12/01 00:01:38;;;;;;;18.77;7.10;;;8.90;99.90;;;;;;5049909;28;20044;-81
2020/12/01 00:04:03;;;;;;;19.73;5.53;;;8.90;99.90;;;;;;5033443;28;20044;-82
2020/12/01 00:06:32;;;;;;;14.75;5.20;;;8.90;99.90;;;;;;5033319;28;20112;-82
2020/12/01 00:08:58;;;;;;;13.13;3.10;;;9.00;99.90;;;;;;5049900;28;20033;-81
2020/12/01 00:11:24;;;;;;;12.80;5.00;;;9.00;99.90;;;;;;5049758;28;20495;-81
2020/12/01 00:13:50;;;;;;;17.63;4.72;;;9.00;99.90;;;;;;5016737;28;20025;-83
2020/12/01 00:16:16;;;;;;;14.60;5.00;;;9.00;99.90;;;;;;5051023;28;20292;-83
2020/12/01 00:18:42;;;;;;;13.93;4.40;;;9.00;99.90;;;;;;5050902;28;20041;-81
2020/12/01 00:21:14;;;;;;;13.68;6.15;;;9.00;99.90;;;;;;5066092;28;20376;-81
2020/12/01 00:23:40;;;;;;;15.23;5.50;;;9.00;99.90;;;;;;5050518;28;20138;-80
2020/12/01 00:26:06;;;;;;;14.90;5.75;;;9.10;99.90;;;;;;5051090;28;20033;-83
2020/12/01 00:28:32;;;;;;;18.40;6.10;;;9.10;99.90;;;;;;5050746;28;20037;-81
2020/12/01 00:30:59;;;;;;;15.93;5.22;;;9.10;99.80;;;;;;5050754;28;20469;-81
2020/12/01 00:33:25;;;;;;;17.05;6.05;;;9.10;99.70;;;;;;5049666;28;20372;-83
2020/12/01 00:35:50;;;;;;;17.25;4.93;;;9.10;99.70;;;;;;5066002;28;20124;-83
2020/12/01 00:38:16;;;;;;;13.07;4.97;;;9.10;99.60;;;;;;5051024;28;20392;-84
2020/12/01 00:40:42;;;;;;;10.85;4.40;;;9.10;99.60;;;;;;5050940;28;20378;-82
2020/12/01 00:43:08;;;;;;;12.15;4.28;;;9.10;99.60;;;;;;5049212;28;20036;-80
2020/12/01 00:45:33;;;;;;;13.23;4.10;;;9.10;99.50;;;;;;5050770;28;20078;-80
2020/12/01 00:47:59;;;;;;;16.88;4.47;;;9.10;99.70;;;;;;5049218;28;20460;-81
2020/12/01 00:50:25;;;;;;;22.15;6.05;;;9.10;99.50;;;;;;5048125;28;20031;-81
2020/12/01 00:52:52;;;;;;;11.02;4.55;;;9.10;99.50;;;;;;5049124;28;20062;-81
2020/12/01 00:55:18;;;;;;;15.38;4.78;;;9.10;99.50;;;;;;5050587;28;20028;-82
2020/12/01 00:57:43;;;;;;;18.23;4.40;;;9.10;99.50;;;;;;5065902;28;20390;-81
2020/12/01 01:00:14;;;;;;;16.85;4.85;;;9.10;99.50;;;;;;5065840;28;20029;-82
2020/12/01 01:02:39;;;;;;;11.20;4.18;;;9.10;99.40;;;;;;5065659;28;20017;-82
2020/12/01 01:05:05;;;;;;;13.07;4.30;;;9.10;99.30;;;;;;5032432;28;20025;-81
2020/12/01 01:07:31;;;;;;;14.00;5.03;;;9.10;99.40;;;;;;5048896;28;20059;-82
2020/12/01 01:09:57;;;;;;;11.27;3.78;;;9.10;99.30;;;;;;5015710;28;20025;-82
2020/12/01 01:12:22;;;;;;;12.30;4.78;;;9.10;99.30;;;;;;5015557;28;20090;-82
2020/12/01 01:14:48;;;;;;;16.88;4.05;;;9.10;99.30;;;;;;5048600;28;20033;-82
2020/12/01 01:17:14;;;;;;;11.05;4.07;;;9.10;99.20;;;;;;5032296;28;20036;-82
2020/12/01 01:19:39;;;;;;;13.82;4.60;;;9.10;99.20;;;;;;5048520;28;20025;-81
2020/12/01 01:22:05;;;;;;;16.42;3.60;;;9.10;99.10;;;;;;5015245;28;20399;-80
2020/12/01 01:24:31;;;;;;;17.27;4.32;;;9.10;99.20;;;;;;5065117;28;20102;-82
2020/12/01 01:26:57;;;;;;;13.50;3.80;;;9.10;99.20;;;;;;5048436;28;20029;-82
2020/12/01 01:29:24;;;;;;;13.90;4.40;;;9.10;99.10;;;;;;5032145;28;20084;-80
2020/12/01 01:31:54;;;;;;;12.18;3.50;;;9.10;99.10;;;;;;5049640;28;20021;-81
2020/12/01 01:34:20;;;;;;;9.48;3.65;;;9.10;99.00;;;;;;5065207;28;20036;-82
2020/12/01 01:36:46;;;;;;;11.82;4.20;;;9.10;99.00;;;;;;5065017;28;20033;-83
2020/12/01 01:39:12;;;;;;;19.58;3.55;;;9.10;99.00;;;;;;5049647;28;20025;-80
2020/12/01 01:41:38;;;;;;;12.63;3.65;;;9.10;99.00;;;;;;5049283;28;20091;-82
2020/12/01 01:44:21;;;;;;;16.58;3.63;;;9.10;99.00;;;;;;5064673;28;20025;-81
2020/12/01 01:47:13;;;;;;;23.98;3.75;;;9.00;99.00;;;;;;5048034;28;20064;-81
2020/12/01 01:49:41;;;;;;;13.30;4.03;;;9.10;99.00;;;;;;5048214;28;20372;-82
2020/12/01 01:52:21;;;;;;;14.00;3.53;;;9.10;99.00;;;;;;5064625;28;20482;-82
2020/12/01 01:54:52;;;;;;;22.23;3.75;;;9.10;99.00;;;;;;5064754;28;20056;-80
2020/12/01 01:57:17;;;;;;;14.70;3.78;;;9.10;99.00;;;;;;5047827;28;20021;-81
2020/12/01 01:59:46;;;;;;;14.30;4.20;;;9.10;99.00;;;;;;5047882;28;20032;-82
2020/12/01 02:02:11;;;;;;;12.23;3.67;;;9.10;99.00;;;;;;5064332;28;20040;-83
2020/12/01 02:04:37;;;;;;;15.70;3.72;;;9.10;98.90;;;;;;5047875;28;20479;-81
2020/12/01 02:07:05;;;;;;;11.98;4.00;;;9.10;98.90;;;;;;5047756;28;20028;-83
2020/12/01 02:09:43;;;;;;;18.13;4.57;;;9.10;98.80;;;;;;5064232;28;20032;-82
2020/12/01 02:12:13;;;;;;;14.52;3.67;;;9.10;98.70;;;;;;5064403;28;20116;-83
2020/12/01 02:14:54;;;;;;;20.67;4.32;;;9.10;98.70;;;;;;5064350;28;20056;-82
2020/12/01 02:17:21;;;;;;;21.65;4.72;;;9.00;98.70;;;;;;5048806;28;20483;-80
2020/12/01 02:19:49;;;;;;;18.67;4.50;;;9.00;98.70;;;;;;5064357;28;20035;-81
2020/12/01 02:22:18;;;;;;;19.17;3.92;;;9.00;98.70;;;;;;5047424;28;20407;-82
2020/12/01 02:24:45;;;;;;;16.48;4.53;;;9.00;98.70;;;;;;5063958;28;20118;-83
2020/12/01 02:27:15;;;;;;;17.95;5.15;;;9.00;98.70;;;;;;5048596;28;20033;-81
2020/12/01 02:29:45;;;;;;;14.18;3.38;;;9.00;98.70;;;;;;5048916;28;20422;-82
2020/12/01 02:32:11;;;;;;;16.95;4.78;;;9.00;98.70;;;;;;5047103;28;20053;-83
2020/12/01 02:34:40;;;;;;;13.30;3.50;;;9.00;98.70;;;;;;5047345;28;20436;-83
2020/12/01 02:37:06;;;;;;;18.63;3.57;;;9.00;98.70;;;;;;5047250;28;20086;-83
2020/12/01 02:39:33;;;;;;;16.52;3.42;;;9.00;98.70;;;;;;5047098;28;20101;-83
2020/12/01 02:42:05;;;;;;;13.88;3.30;;;9.00;98.70;;;;;;5047252;28;20471;-83
2020/12/01 02:44:31;;;;;;;20.77;3.88;;;9.00;98.70;;;;;;5063692;28;20063;-83
2020/12/01 02:47:00;;;;;;;12.73;2.88;;;9.00;98.60;;;;;;5046893;28;20127;-83
2020/12/01 02:49:26;;;;;;;15.13;2.75;;;9.00;98.60;;;;;;5063658;28;20410;-83
2020/12/01 02:51:52;;;;;;;24.15;4.30;;;8.90;98.60;;;;;;5046887;28;20025;-82
2020/12/01 02:54:18;;;;;;;13.98;2.75;;;9.00;98.60;;;;;;5046958;28;20036;-81
2020/12/01 02:56:45;;;;;;;16.73;3.47;;;8.90;98.60;;;;;;5013915;28;20115;-82
2020/12/01 02:59:12;;;;;;;14.52;3.70;;;9.00;98.60;;;;;;5046912;28;20044;-83
2020/12/01 03:01:37;;;;;;;8.95;3.08;;;9.00;98.60;;;;;;5046754;28;20029;-82
2020/12/01 03:04:03;;;;;;;13.77;3.13;;;9.00;98.60;;;;;;5046548;28;20087;-82
2020/12/01 03:06:29;;;;;;;13.05;3.40;;;9.00;98.60;;;;;;5030168;28;20215;-83
2020/12/01 03:08:54;;;;;;;11.93;3.17;;;9.00;98.50;;;;;;5013888;28;20397;-83
2020/12/01 03:11:20;;;;;;;18.85;3.95;;;9.00;98.50;;;;;;5013617;28;20112;-82
2020/12/01 03:13:46;;;;;;;16.67;2.97;;;9.00;98.50;;;;;;5062912;28;20628;-82
2020/12/01 03:16:12;;;;;;;16.08;3.53;;;9.00;98.50;;;;;;5046759;28;20036;-81
2020/12/01 03:18:40;;;;;;;14.10;4.10;;;9.00;98.50;;;;;;5046855;28;20037;-81
2020/12/01 03:21:07;;;;;;;16.60;3.60;;;9.00;98.50;;;;;;5063462;28;20067;-83
2020/12/01 03:23:34;;;;;;;14.05;3.80;;;9.00;98.50;;;;;;5046428;28;20056;-84
2020/12/01 03:26:01;;;;;;;14.93;4.32;;;9.00;98.50;;;;;;5047892;28;20053;-83
2020/12/01 03:28:28;;;;;;;18.63;4.35;;;9.00;98.50;;;;;;5046523;28;20071;-81
2020/12/01 03:30:54;;;;;;;14.50;3.13;;;9.00;98.50;;;;;;5029831;28;20025;-83
2020/12/01 03:33:20;;;;;;;11.60;3.45;;;9.00;98.50;;;;;;5029832;28;20030;-81
2020/12/01 03:35:46;;;;;;;9.95;2.83;;;9.00;98.50;;;;;;5046314;28;20094;-84
2020/12/01 03:38:12;;;;;;;19.38;3.80;;;9.00;98.50;;;;;;5047198;28;20041;-82
2020/12/01 03:40:38;;;;;;;11.75;3.50;;;9.00;98.40;;;;;;5047550;28;20032;-81
2020/12/01 03:43:04;;;;;;;15.55;3.30;;;9.00;98.40;;;;;;5046218;28;20123;-81
2020/12/01 03:45:30;;;;;;;14.73;2.97;;;8.90;98.40;;;;;;5029699;28;20472;-81
2020/12/01 03:47:56;;;;;;;11.68;3.97;;;8.90;98.40;;;;;;5046351;28;20026;-79
2020/12/01 03:50:23;;;;;;;12.23;2.83;;;8.90;98.40;;;;;;5030019;28;20650;-82
2020/12/01 03:52:49;;;;;;;14.63;3.40;;;8.90;98.50;;;;;;5046357;28;20033;-82
2020/12/01 03:55:15;;;;;;;15.48;3.40;;;8.90;98.40;;;;;;5029758;28;20369;-82
2020/12/01 03:57:41;;;;;;;14.70;3.67;;;8.90;98.40;;;;;;5046158;28;20040;-82
2020/12/01 04:00:10;;;;;;;11.88;3.47;;;8.90;98.40;;;;;;5029636;28;20073;-81
2020/12/01 04:02:36;;;;;;;7.60;2.63;;;8.90;98.40;;;;;;5062812;28;20025;-80
2020/12/01 04:05:01;;;;;;;13.07;3.35;;;8.80;98.40;;;;;;5047733;28;20597;-81
2020/12/01 04:07:27;;;;;;;14.10;3.33;;;8.80;98.40;;;;;;5046229;28;20361;-81
2020/12/01 04:09:53;;;;;;;20.63;3.22;;;8.80;98.50;;;;;;5029438;28;20028;-82
2020/12/01 04:12:19;;;;;;;17.63;3.55;;;8.80;98.50;;;;;;5013136;28;20026;-83
2020/12/01 04:14:44;;;;;;;9.63;2.67;;;8.80;98.50;;;;;;5046091;28;20120;-83
2020/12/01 04:17:10;;;;;;;17.85;3.67;;;8.80;98.50;;;;;;5046050;28;20067;-85
2020/12/01 04:19:35;;;;;;;17.55;3.55;;;8.80;98.50;;;;;;5012990;28;20025;-83
2020/12/01 04:22:01;;;;;;;15.50;2.97;;;8.80;98.50;;;;;;5045976;28;20045;-83
2020/12/01 04:24:27;;;;;;;12.25;3.05;;;8.80;98.50;;;;;;5045971;28;20503;-83
2020/12/01 04:26:53;;;;;;;17.40;4.32;;;8.90;98.50;;;;;;5015823;28;20032;-83
2020/12/01 04:29:18;;;;;;;11.07;3.30;;;8.90;98.50;;;;;;5033101;28;20025;-82
2020/12/01 04:31:44;;;;;;;14.40;3.35;;;8.90;98.50;;;;;;5050841;28;20029;-83
2020/12/01 04:34:09;;;;;;;18.42;3.75;;;8.90;98.40;;;;;;5049655;28;20419;-81
2020/12/01 04:36:35;;;;;;;16.80;3.75;;;8.90;98.40;;;;;;5016437;28;20094;-83
2020/12/01 04:39:01;;;;;;;17.70;3.83;;;8.90;98.40;;;;;;5049352;28;20072;-83
2020/12/01 04:41:27;;;;;;;11.32;2.85;;;8.90;98.50;;;;;;5016264;28;20046;-80
2020/12/01 04:43:57;;;;;;;14.95;3.30;;;8.90;98.20;;;;;;5032825;28;20120;-81
2020/12/01 04:46:26;;;;;;;14.02;3.65;;;8.90;98.20;;;;;;5065854;28;20021;-82
2020/12/01 04:49:04;;;;;;;13.77;3.47;;;8.90;98.20;;;;;;5049543;28;20050;-83
2020/12/01 04:51:38;;;;;;;13.10;3.70;;;8.80;98.10;;;;;;5050634;28;20079;-83
2020/12/01 04:54:37;;;;;;;22.00;3.55;;;8.70;98.10;;;;;;5050457;28;20025;-82
2020/12/01 04:57:08;;;;;;;17.65;3.63;;;8.60;98.10;;;;;;5049076;28;20021;-83
2020/12/01 05:00:15;;;;;;;11.68;3.42;;;8.60;98.10;;;;;;5048967;28;20059;-80
2020/12/01 05:03:28;;;;;;;11.50;2.90;;;8.40;98.10;;;;;;5048173;28;20099;-81
2020/12/01 05:06:30;;;;;;;14.65;3.33;;;8.30;98.10;;;;;;5065608;28;20582;-81
2020/12/01 05:09:03;;;;;;;16.95;3.67;;;8.20;98.10;;;;;;5048838;28;20051;-81
2020/12/01 05:11:56;;;;;;;11.98;3.90;;;8.10;98.20;;;;;;5065579;28;20489;-81
2020/12/01 05:14:53;;;;;;;14.85;3.55;;;8.10;98.30;;;;;;5048961;28;20144;-83
2020/12/01 05:17:52;;;;;;;12.77;3.10;;;8.00;98.40;;;;;;5065708;28;20025;-81
2020/12/01 05:20:18;;;;;;;25.15;3.85;;;8.10;98.50;;;;;;5050025;28;20032;-80
2020/12/01 05:22:57;;;;;;;16.15;4.28;;;8.10;98.50;;;;;;5048622;28;20044;-83
2020/12/01 05:25:27;;;;;;;16.83;3.63;;;8.10;98.60;;;;;;5065374;28;20041;-83
2020/12/01 05:28:12;;;;;;;13.20;3.90;;;8.10;98.60;;;;;;5065458;28;20507;-82
2020/12/01 05:30:43;;;;;;;18.08;4.75;;;8.10;98.90;;;;;;5064983;28;20112;-81
2020/12/01 05:33:23;;;;;;;16.55;4.18;;;8.10;98.60;;;;;;5049377;28;20068;-82
2020/12/01 05:35:58;;;;;;;;;;;8.10;98.70;;;;;;5065356;28;20160;-82
2020/12/01 05:38:25;;;;;;;14.38;4.75;;;8.10;98.70;;;;;;5064628;28;20418;-80
2020/12/01 05:40:54;;;;;;;12.77;3.50;;;8.10;98.50;;;;;;5048691;28;20048;-81
2020/12/01 05:43:30;;;;;;;18.77;4.60;;;8.10;98.70;;;;;;5065007;28;20162;-82
2020/12/01 05:46:13;;;;;;;14.13;4.30;;;8.00;98.70;;;;;;5049630;28;20029;-81
2020/12/01 05:49:38;;;;;;;19.27;3.97;;;8.00;98.70;;;;;;5048069;28;20021;-82
2020/12/01 05:52:24;;;;;;;13.50;3.55;;;8.00;98.80;;;;;;5026806;28;20079;-85
2020/12/01 05:55:14;;;;;;;12.20;3.67;;;8.00;98.80;;;;;;5026369;28;20052;-81
2020/12/01 05:57:39;;;;;;;;;;;8.00;98.90;;;;;;5044619;28;20068;-81
2020/12/01 06:00:33;;;;;;;17.98;3.78;;;8.00;98.90;;;;;;5048220;28;19948;-81
2020/12/01 06:03:17;;;;;;;30.15;5.10;;;8.00;98.80;;;;;;5046004;28;20033;-81
2020/12/01 06:05:46;;;;;;;16.85;4.75;;;8.00;98.80;;;;;;5049198;28;20039;-82
2020/12/01 06:08:27;;;;;;;;;;;8.10;98.80;;;;;;5064538;28;20029;-83
2020/12/01 06:11:03;;;;;;;14.80;3.38;;;8.10;98.90;;;;;;5064299;28;19924;-84
2020/12/01 06:13:44;;;;;;;15.80;3.90;;;8.10;98.70;;;;;;5049394;28;20033;-83
2020/12/01 06:16:58;;;;;;;16.10;3.85;;;8.10;99.00;;;;;;5064269;28;20082;-82
2020/12/01 06:19:41;;;;;;;22.33;3.88;;;8.10;98.90;;;;;;5038643;28;20033;-82
2020/12/01 06:22:19;;;;;;;18.95;3.65;;;8.10;98.90;;;;;;5047307;28;20618;-81
2020/12/01 06:25:16;;;;;;;9.18;3.53;;;8.20;98.90;;;;;;5047302;28;20462;-83
2020/12/01 06:28:10;;;;;;;13.45;3.45;;;8.20;98.90;;;;;;5048723;28;20465;-83
2020/12/01 06:31:01;;;;;;;20.65;4.00;;;8.30;98.90;;;;;;5048754;28;20044;-81
2020/12/01 06:33:44;;;;;;;13.30;3.47;;;8.40;98.90;;;;;;5047379;28;20048;-82
2020/12/01 06:36:22;;;;;;;19.50;3.60;;;8.40;98.90;;;;;;5048653;28;20194;-82
2020/12/01 06:39:12;;;;;;;13.73;3.33;;;8.50;98.80;;;;;;5048542;28;20027;-82
2020/12/01 06:41:44;;;;;;;12.10;4.03;;;8.60;98.70;;;;;;5048309;28;20037;-81
2020/12/01 06:44:15;;;;;;;18.33;3.55;;;8.60;98.70;;;;;;5048351;28;20040;-82
2020/12/01 06:46:54;;;;;;;16.80;3.88;;;8.60;98.60;;;;;;5063522;28;20028;-82
2020/12/01 06:49:29;;;;;;;15.90;3.88;;;8.60;98.60;;;;;;5062889;28;20127;-81
2020/12/01 06:52:00;;;;;;;16.63;3.65;;;8.70;98.60;;;;;;5063284;28;20472;-81
2020/12/01 06:54:26;;;;;;;13.88;4.32;;;8.70;98.50;;;;;;5047775;28;20116;-81
2020/12/01 06:56:59;;;;;;;16.50;3.65;;;8.70;98.50;;;;;;5046260;28;20112;-83
2020/12/01 06:59:25;;;;;;;18.67;3.63;;;8.70;98.40;;;;;;5046730;28;20040;-83
2020/12/01 07:01:51;;;;;;;15.32;3.35;;;8.70;98.40;;;;;;5046550;28;20405;-82
2020/12/01 07:04:26;;;;;;;21.10;5.00;;;8.70;98.40;;;;;;5047979;28;20029;-81
2020/12/01 07:06:54;;;;;;;15.65;4.05;;;8.70;98.40;;;;;;5046680;28;20108;-81
2020/12/01 07:09:45;;;;;;;16.38;4.18;;;8.80;98.40;;;;;;5046667;28;20071;-84
2020/12/01 07:12:15;;;;;;;20.80;4.22;;;8.80;98.30;;;;;;5045929;28;20489;-81
2020/12/01 07:14:44;;;;;;;13.20;4.20;;;8.80;98.30;;;;;;5048115;28;20028;-83
2020/12/01 07:17:20;;;;;;;21.17;4.90;;;8.80;98.30;;;;;;5063227;28;20025;-81
2020/12/01 07:20:37;;;;;;;10.80;3.72;;;8.80;98.30;;;;;;5046638;28;20106;-78
2020/12/01 07:23:34;;;;;;;14.30;4.38;;;8.80;98.30;;;;;;5035242;28;20044;-83
2020/12/01 07:26:22;;;;;;;12.38;3.90;;;8.80;98.40;;;;;;5063580;28;20048;-83
2020/12/01 07:28:47;;;;;;;10.38;4.15;;;8.80;98.30;;;;;;5047264;28;20040;-82
2020/12/01 07:31:25;;;;;;;13.52;4.07;;;8.80;98.30;;;;;;5046180;28;20024;-81
2020/12/01 07:34:02;;;;;;;15.60;4.72;;;8.90;98.40;;;;;;5047523;28;20024;-81
2020/12/01 07:36:41;;;;;;;16.73;5.18;;;8.90;98.40;;;;;;5047582;28;20029;-81
2020/12/01 07:39:10;;;;;;;22.42;4.80;;;8.90;98.30;;;;;;5047273;28;20022;-83
2020/12/01 07:41:58;;;;;;;16.02;4.25;;;8.90;98.30;;;;;;5047695;28;20033;-80
2020/12/01 07:44:26;;;;;;;13.43;4.78;;;8.80;98.30;;;;;;5047340;28;20040;-83
2020/12/01 07:47:13;;;;;;;13.05;4.85;;;8.80;98.30;;;;;;5047119;28;20082;-81
2020/12/01 07:49:39;;;;;;;20.52;5.38;;;8.80;98.40;;;;;;5047152;28;20085;-82
2020/12/01 07:52:14;;;;;;;13.32;4.40;;;8.80;98.30;;;;;;5029635;28;20484;-81
2020/12/01 07:54:41;;;;;;;15.57;5.80;;;8.80;98.30;;;;;;5045797;28;20028;-82
2020/12/01 07:57:16;;;;;;;14.77;4.60;;;8.80;98.30;;;;;;5062505;28;20670;-82
2020/12/01 07:59:44;;;;;;;12.48;4.53;;;8.70;98.30;;;;;;5046903;28;20032;-81
2020/12/01 08:02:11;;;;;;;17.80;5.35;;;8.70;98.30;;;;;;5049542;28;20086;-83
2020/12/01 08:04:37;;;;;;;12.57;4.50;;;8.70;98.40;;;;;;5066471;28;20033;-81
2020/12/01 08:07:04;;;;;;;14.02;4.38;;;8.70;98.40;;;;;;5016747;28;20086;-83
2020/12/01 08:09:30;;;;;;;20.40;5.18;;;8.70;98.40;;;;;;5049781;28;20147;-82
2020/12/01 08:12:02;;;;;;;16.00;5.15;;;8.60;98.40;;;;;;5066108;28;20025;-81
2020/12/01 08:14:28;;;;;;;14.75;5.85;;;8.60;98.40;;;;;;5049408;28;20484;-81
2020/12/01 08:17:12;;;;;;;16.20;4.20;;;8.60;98.50;;;;;;5016267;28;20044;-80
2020/12/01 08:19:39;;;;;;;16.92;4.63;;;8.60;98.50;;;;;;5066075;28;20035;-81
2020/12/01 08:22:08;;;;;;;13.70;4.50;;;8.60;98.50;;;;;;5016398;28;20037;-83
2020/12/01 08:24:38;;;;;;;12.00;5.05;;;8.60;98.50;;;;;;5050308;28;20544;-81
2020/12/01 08:27:46;;;;;;;16.83;4.13;;;8.60;98.50;;;;;;5049355;28;20490;-81
2020/12/01 08:30:31;;;;;;;13.93;4.75;;;8.60;98.60;;;;;;5027343;28;20029;-80
2020/12/01 08:33:07;;;;;;;18.33;4.90;;;8.60;98.50;;;;;;5027764;28;20056;-82
2020/12/01 08:35:52;;;;;;;18.52;4.35;;;8.70;98.50;;;;;;5042745;28;20028;-81
2020/12/01 08:38:44;;;;;;;18.58;4.22;;;8.70;98.50;;;;;;5048591;28;20407;-82
2020/12/01 08:41:09;;;;;;;22.02;3.67;;;8.70;98.60;;;;;;5049883;28;20029;-81
2020/12/01 08:43:48;;;;;;;16.70;5.07;;;8.80;98.60;;;;;;5048615;28;20040;-82
2020/12/01 08:46:21;;;;;;;19.75;4.28;;;8.80;98.60;;;;;;5049757;28;20029;-83
2020/12/01 08:49:23;;;;;;;19.45;5.50;;;8.80;98.50;;;;;;5064687;28;20116;-81
2020/12/01 08:52:01;;;;;;;20.15;4.45;;;8.80;98.50;;;;;;5064998;28;20021;-81
2020/12/01 08:54:31;;;;;;;12.65;3.70;;;8.90;98.50;;;;;;5049742;28;20100;-80
2020/12/01 08:57:08;;;;;;;;;;;8.90;98.50;;;;;;5064441;28;20025;-82
2020/12/01 08:59:38;;;;;;;13.00;3.85;;;8.90;98.60;;;;;;5047953;28;19909;-81
2020/12/01 09:02:06;;;;;;;13.60;3.78;;;9.00;98.50;;;;;;5049159;28;20032;-82
2020/12/01 09:04:34;;;;;;;23.40;4.45;;;9.00;98.50;;;;;;5064908;28;20040;-81
2020/12/01 09:08:02;;;;;;;16.27;3.78;;;9.00;98.50;;;;;;5048786;28;20130;-80
2020/12/01 09:10:30;;;;;;;21.45;4.50;;;9.00;98.50;;;;;;5045153;28;20442;-81
2020/12/01 09:19:14;;;;;;;18.60;4.57;;;9.00;98.50;;;;;;5034371;28;20450;-81
2020/12/01 09:24:17;;;;;;;13.75;4.18;;;9.10;98.50;;;;;;5048711;28;20091;-81
2020/12/01 09:26:43;;;;;;;12.45;4.20;;;9.10;98.50;;;;;;5064223;28;20055;-81
2020/12/01 09:29:09;;;;;;;10.60;3.95;;;9.10;98.50;;;;;;5048184;28;20691;-80
2020/12/01 09:31:38;;;;;;;15.27;4.70;;;9.20;98.60;;;;;;5067266;28;20029;-82
2020/12/01 09:34:03;;;;;;;15.87;5.67;;;9.20;98.60;;;;;;5067741;28;20498;-81
2020/12/01 09:36:29;;;;;;;12.05;4.20;;;9.30;98.60;;;;;;5068788;28;20029;-84
2020/12/01 09:38:55;;;;;;;19.00;4.30;;;9.30;98.60;;;;;;5034712;28;20037;-82
2020/12/01 09:41:23;;;;;;;12.40;4.20;;;9.40;98.50;;;;;;5067691;28;20467;-83
2020/12/01 09:44:00;;;;;;;17.55;4.80;;;9.50;98.60;;;;;;5066831;28;20048;-83
2020/12/01 09:46:50;;;;;;;11.68;3.63;;;9.50;98.70;;;;;;5067798;28;20025;-83
2020/12/01 09:49:15;;;;;;;14.95;4.20;;;9.80;98.80;;;;;;5053809;28;20111;-83
2020/12/01 09:51:55;;;;;;;17.70;4.68;;;9.90;98.60;;;;;;5050923;28;20124;-83
2020/12/01 09:54:34;;;;;;;17.55;3.90;;;10.00;98.50;;;;;;5053061;28;20032;-83
2020/12/01 09:57:05;;;;;;;11.23;4.10;;;10.10;98.30;;;;;;5054030;28;20028;-80
2020/12/01 09:59:42;;;;;;;23.70;4.95;;;10.10;98.10;;;;;;5053739;28;20504;-82
2020/12/01 10:07:47;;;;;;;16.20;5.53;;;10.20;98.10;;;;;;5050017;28;20067;-81
2020/12/01 10:13:06;;;;;;;14.95;5.47;;;10.20;98.00;;;;;;5051000;28;20434;-83
2020/12/01 10:34:56;;;;;;;15.75;5.40;;;10.50;97.80;;;;;;5069482;28;20025;-80
2020/12/01 10:37:17;;;;;;;19.10;5.53;;;10.50;97.70;;;;;;5069894;28;20039;-80
2020/12/01 10:39:43;;;;;;;15.73;5.82;;;10.50;97.80;;;;;;5069118;28;20028;-82
2020/12/01 10:42:11;;;;;;;15.63;6.55;;;10.50;97.90;;;;;;5052047;28;20028;-82
2020/12/01 10:44:37;;;;;;;14.98;6.20;;;10.50;98.00;;;;;;5069483;28;20029;-80
2020/12/01 10:47:03;;;;;;;25.42;6.18;;;10.60;98.00;;;;;;5068624;28;20031;-81
2020/12/01 10:49:29;;;;;;;16.98;6.45;;;10.60;98.00;;;;;;5051957;28;20021;-81
2020/12/01 10:51:55;;;;;;;17.00;6.43;;;10.60;98.00;;;;;;5068264;28;20521;-80
2020/12/01 10:54:21;;;;;;;16.40;5.78;;;10.70;98.00;;;;;;5068336;28;20060;-83
2020/12/01 10:56:51;;;;;;;12.40;5.55;;;10.70;97.90;;;;;;5068746;28;20032;-79
2020/12/01 10:59:17;;;;;;;16.65;6.53;;;10.70;97.80;;;;;;5068172;28;20021;-80
2020/12/01 11:01:43;;;;;;;15.75;5.20;;;10.70;97.80;;;;;;5068466;28;20043;-83
2020/12/01 11:04:09;;;;;;;16.48;5.90;;;10.80;97.80;;;;;;5051478;28;20029;-80
2020/12/01 11:06:36;;;;;;;17.27;5.88;;;10.90;98.00;;;;;;5069159;28;20095;-79
2020/12/01 11:09:07;;;;;;;15.75;5.97;;;10.90;98.10;;;;;;5048175;28;20029;-81
2020/12/01 11:11:33;;;;;;;23.35;9.10;;;11.20;98.30;;;;;;5049278;28;20017;-79
2020/12/01 11:14:00;;;;;;;13.52;5.43;;;11.40;98.10;;;;;;5049391;28;20090;-82
2020/12/01 11:16:25;;;;;;;21.48;5.43;;;11.50;97.90;;;;;;5064644;28;20045;-81
2020/12/01 11:18:51;;;;;;;14.68;5.25;;;11.80;97.80;;;;;;5069615;28;20082;-82
2020/12/01 11:21:17;;;;;;;13.85;5.68;;;12.00;97.50;;;;;;5052112;28;20108;-79
2020/12/01 11:23:43;;;;;;;19.77;7.30;;;12.00;97.10;;;;;;5070180;28;20048;-80
2020/12/01 11:26:20;;;;;;;16.77;6.72;;;12.10;97.00;;;;;;5069699;28;20028;-81
2020/12/01 11:28:46;;;;;;;24.42;9.07;;;12.00;96.70;;;;;;5068401;28;20699;-79
2020/12/01 11:31:13;;;;;;;20.00;6.55;;;12.00;96.60;;;;;;5051814;28;20035;-81
2020/12/01 11:33:39;;;;;;;20.58;6.07;;;11.80;96.70;;;;;;5069553;28;20026;-80
2020/12/01 11:36:05;;;;;;;24.20;6.53;;;11.80;96.80;;;;;;5067454;28;20429;-81
2020/12/01 11:38:32;;;;;;;22.92;6.72;;;11.70;96.90;;;;;;5067885;28;20032;-79
2020/12/01 11:40:57;;;;;;;23.30;7.07;;;11.60;97.10;;;;;;5070970;28;20024;-80
2020/12/01 11:43:23;;;;;;;22.38;7.05;;;11.40;97.20;;;;;;5070221;28;20051;-79
2020/12/01 11:45:49;;;;;;;33.40;10.52;;;11.40;97.40;;;;;;5070742;28;20021;-79
2020/12/01 11:48:15;;;;;;;31.35;10.30;;;11.30;97.50;;;;;;5070236;28;20364;-81
2020/12/01 11:50:41;;;;;;;22.70;6.55;;;11.30;97.70;;;;;;5033945;28;20471;-81
2020/12/01 11:53:06;;;;;;;22.00;6.32;;;11.30;97.80;;;;;;5050000;28;20036;-80
2020/12/01 11:55:32;;;;;;;17.63;5.70;;;11.30;98.00;;;;;;5049803;28;20467;-80
2020/12/01 11:57:58;;;;;;;17.95;6.43;;;11.30;97.90;;;;;;5049881;28;20033;-79
2020/12/01 12:00:26;;;;;;;22.67;7.45;;;11.20;97.80;;;;;;5048548;28;20124;-80
2020/12/01 12:02:51;;;;;;;33.17;12.93;;;11.20;98.00;;;;;;5048591;28;20025;-80
2020/12/01 12:05:17;;;;;;;21.35;8.05;;;11.20;98.10;;;;;;5047446;28;20048;-80
2020/12/01 12:07:43;;;;;;;24.15;7.68;;;11.20;98.00;;;;;;5031033;28;20025;-81
2020/12/01 12:10:09;;;;;;;23.20;7.82;;;11.20;98.10;;;;;;5047334;28;20502;-80
2020/12/01 12:12:35;;;;;;;18.98;7.80;;;11.20;98.10;;;;;;5049569;28;20025;-79
2020/12/01 12:15:00;;;;;;;24.02;8.25;;;11.10;98.10;;;;;;5068562;28;20056;-80
2020/12/01 12:17:26;;;;;;;21.48;10.10;;;11.10;98.20;;;;;;5067099;28;20471;-81
2020/12/01 12:19:52;;;;;;;37.08;13.07;;;11.00;98.30;;;;;;5067053;28;20089;-79
2020/12/01 12:22:18;;;;;;;28.33;9.40;;;11.00;98.40;;;;;;5067431;28;20028;-81
2020/12/01 12:24:47;;;;;;;29.70;9.73;;;11.00;98.40;;;;;;5066864;28;20486;-81
2020/12/01 12:27:13;;;;;;;23.52;8.73;;;11.00;98.50;;;;;;5050790;28;20036;-81
2020/12/01 12:29:38;;;;;;;28.58;9.65;;;11.00;98.50;;;;;;5050620;28;20039;-81
2020/12/01 12:32:04;;;;;;;25.75;10.50;;;11.00;98.60;;;;;;5049805;28;20133;-81
2020/12/01 12:34:30;;;;;;;39.33;13.02;;;11.10;98.80;;;;;;5033603;28;20041;-80
2020/12/01 12:36:56;;;;;;;24.40;12.02;;;11.10;98.80;;;;;;5034058;28;20041;-79
2020/12/01 12:39:22;;;;;;;38.38;12.95;;;11.10;98.80;;;;;;5050588;28;20039;-81
2020/12/01 12:41:48;;;;;;;31.27;10.48;;;11.10;98.80;;;;;;5050416;28;20097;-81
2020/12/01 12:44:14;;;;;;;26.52;11.23;;;11.20;98.80;;;;;;5050874;28;20120;-81
2020/12/01 12:46:43;;;;;;;23.65;11.57;;;11.10;98.80;;;;;;5034917;28;20036;-80
2020/12/01 12:49:09;;;;;;;31.77;11.50;;;11.10;98.90;;;;;;5054902;28;20025;-80
2020/12/01 12:51:35;;;;;;;24.55;11.68;;;11.10;98.90;;;;;;5053887;28;20356;-79
2020/12/01 12:54:00;;;;;;;29.95;12.27;;;11.10;99.00;;;;;;5051224;28;20402;-80
2020/12/01 12:56:27;;;;;;;32.78;12.48;;;11.10;99.10;;;;;;5057130;28;20040;-79
2020/12/01 12:58:53;;;;;;;28.20;11.85;;;11.10;99.10;;;;;;5090567;28;20028;-80
2020/12/01 13:01:20;;;;;;;32.05;13.00;;;11.10;99.20;;;;;;5076619;28;20116;-79
2020/12/01 13:03:46;;;;;;;29.42;11.98;;;11.10;99.30;;;;;;5071730;28;20028;-80
2020/12/01 13:06:12;;;;;;;32.70;13.30;;;11.10;99.30;;;;;;5071584;28;20016;-81
2020/12/01 13:08:38;;;;;;;34.10;13.15;;;11.10;99.40;;;;;;5069938;28;20032;-79
2020/12/01 13:11:05;;;;;;;27.98;14.13;;;11.10;99.40;;;;;;5069784;28;20755;-80
2020/12/01 13:13:31;;;;;;;32.85;14.43;;;11.10;99.50;;;;;;5069708;28;20155;-79
2020/12/01 13:15:57;;;;;;;32.78;15.30;;;11.10;99.50;;;;;;5036947;28;20503;-81
2020/12/01 13:18:23;;;;;;;25.90;14.00;;;11.10;99.50;;;;;;5051929;28;20037;-80
2020/12/01 13:20:48;;;;;;;27.48;14.05;;;11.10;99.60;;;;;;5070062;28;20037;-79
2020/12/01 13:23:14;;;;;;;36.70;14.35;;;11.00;99.60;;;;;;5037091;28;20050;-79
2020/12/01 13:25:40;;;;;;;26.20;13.55;;;11.00;99.60;;;;;;5070286;28;20431;-79
2020/12/01 13:28:06;;;;;;;32.63;14.25;;;11.00;99.70;;;;;;5052779;28;20095;-79
2020/12/01 13:30:32;;;;;;;32.90;14.30;;;11.10;99.80;;;;;;5052647;28;20111;-79
2020/12/01 13:32:58;;;;;;;31.55;14.82;;;11.10;99.80;;;;;;5070056;28;20376;-78
2020/12/01 13:35:24;;;;;;;27.02;13.73;;;11.10;99.80;;;;;;5071030;28;20415;-79
2020/12/01 13:37:50;;;;;;;27.83;13.07;;;11.10;99.80;;;;;;5052804;28;20032;-79
2020/12/01 13:40:19;;;;;;;31.50;13.82;;;11.10;99.80;;;;;;5052597;28;20465;-79
2020/12/01 13:42:45;;;;;;;27.05;12.55;;;11.10;99.80;;;;;;5069469;28;20435;-79